Greenacres, WA (99016)

5:58 AM PDT on October 21, 2014 (GMT -0700)
Morningside | Change Station
CLOSE
Current Station
Personal Weather Station
Location: Greenacres, WA
Elevation: 712 m
Nearby Weather Stations

Elev 712 m 47.63 °N, 117.17 °W | Updated 4 seconds ago

Overcast
Overcast
10.3 °C
Feels Like 10.3 °C
N
0.0
Wind Variable Wind from South
Gusts 0.0 km/h

Today
High -- | Low -- °C
--% Chance of Precip.
Yesterday
High -- | Low -- °C
Precip. -- mm
7:16 AM 5:49 PM
Waning Crescent, 6% visible
Pressure 1010 hPa
Visibility 16.1 kilometers
Clouds Overcast 640 m
Dew Point -7 °C
Humidity 29%
Rainfall 0 mm
Snow Depth 1 in
UV 0 out of 12
Pollen 2.00 out of 12
PM2.5 Good
Flu Activity Sporadic
METAR KSFF 211253Z VRB03KT 10SM OVC021 11/07 A2986 RMK AO2 SLP105 T01060072

More Conditions Fewer Conditions

Pressure 1010 hPa
Visibility 16.1 kilometers
Clouds Overcast 640 m
Dew Point -7 °C
Humidity 29%
Rainfall 0 mm
Snow Depth 1 in
UV 0 out of 12
Pollen 2.00 out of 12
PM2.5 Good
Flu Activity Sporadic
METAR KSFF 211253Z VRB03KT 10SM OVC021 11/07 A2986 RMK AO2 SLP105 T01060072

More Conditions Fewer Conditions

10-Day Weather Forecast

Almanac

Astronomy

Oct. 21, 2014 Rise Set
Actual Time 7:16 AM PDT 5:49 PM PDT
Civil Twilight 6:44 AM PDT 6:20 PM PDT
Nautical Twilight 6:08 AM PDT 6:56 PM PDT
Astronomical Twilight 5:33 AM PDT 7:32 PM PDT
Moon 4:56 AM PDT 4:52 PM PDT
Length of Visible Light 11h 35m
Length of Day
10h 32m
Tomorrow will be 3m 14s shorter.
Waning Crescent, 6% of the Moon is Illuminated
Today
Waning Crescent
Oct 23
New
Oct 30
First Quarter
Nov 6
Full
Nov 14
Last Quarter

Today's Extremes

State Highs State Lows

Community

WunderPhotos

Upload Photos

1,763,649 photos uploaded!

Nearby

Air Quality

  Air Quality AQ Index Pollutant
Yesterday Good
PM10
Current Good
PM2.5
Tuesday Good
PM10
Tuesday Good
CO

Snow Depth

Station Depth Elevation
Quartz Peak 1 in 4700 ft
Bunchgrass Meadow 0 in 5000 ft
Sourdough Gulch 1 in 4000 ft
Spruce Springs 1 in 5700 ft
Moses Mountain 0 in 5300 ft

Earthquake Activity

City Distance Mag. Time & Date
No recent earthquake activity has been reported nearby.
Minimum magnitude displayed is 2.5.

Coastal Water Temperatures

Place Temperature
No Stations Reporting

Nearby Weather Stations